Adamstown, Maryland
Current Conditions -  °F | °C
As of 8:45 AM on Friday 24 Oct 2014 (Local Time) from KFDK Reporting Station
Clear Clear  
Wind Chill: 61°   Ceiling: Unl
Heat Index: 61°   Visibility: 10mi
Dew Point: 45°   Wind: 8mph
Humidity: 55%   Direction: 320°NW
Pressure: 30.01"   Gusts: NA
Location:  39.31°N, 77.47°W
Report Text: KFDK 241245Z 32007KT 10SM SKC 16/07 A3001
Loading
Personal Weather Stations






























Interactive Weather Map
Tropical Storm Tracking
New forecast layout! Learn more

10-Day Weather Forecast

Advertisements
Track Severe Weather on mobile